Terminal Aerodrome Forecast
Issued by NWS

Home | Current Version | Previous Version | Text Only | Print | Product List | Glossary On
Versions: 1 2 3 4 5 6 7 8 9 10 11 12
000
FTUS45 KLKN 190521
TAFELY
TAF
KELY 190521Z 1906/2006 18007KT P6SM SCT120
     FM192000 21012G22KT P6SM VCTS BKN100CB OVC150
     FM200500 19008KT P6SM SCT110=

USA.gov is the U.S. government's official web portal to all federal, state and local government web resources and services.